DRK241 VEGT-VQPR
Flight info
| Callsign | DRK241 |
|---|---|
| Flight time | 0h 34m |
| Altitude | 24000 |
| Route | GGT W137 DUKUM DCT BOGOP DCT TAKTI DCT PRO DCT PR |
| Aircraft | A319/M-SDE3FGHIRWY/LB1 |
Departure
| Time | 2026-05-04 07:28 |
|---|---|
| Airport | Lokpriya Gopinath Bordoloi International Airport (VEGT) |
Arrival
| Time | 2026-05-04 08:02 |
|---|---|
| Airport | Paro International Airport (VQPR) |
| Time | Latitude | Longitude | Altitude | Speed | Heading |
|---|---|---|---|---|---|
| 2026-05-04 07:04 | 26.10594 | 91.58754 | 172 ft | 0 kts | 110° |
| 2026-05-04 07:19 | 26.10595 | 91.58753 | 172 ft | 2 kts | 110° |
| 2026-05-04 07:20 | 26.10604 | 91.58727 | 172 ft | 4 kts | 116° |
| 2026-05-04 07:20 | 26.10616 | 91.58702 | 173 ft | 4 kts | 128° |
| 2026-05-04 07:20 | 26.10623 | 91.58693 | 173 ft | 1 kts | 129° |
| 2026-05-04 07:23 | 26.10620 | 91.58697 | 173 ft | 3 kts | 131° |
| 2026-05-04 07:24 | 26.10610 | 91.58691 | 173 ft | 4 kts | 208° |
| 2026-05-04 07:24 | 26.10572 | 91.58665 | 172 ft | 8 kts | 207° |
| 2026-05-04 07:24 | 26.10551 | 91.58612 | 173 ft | 9 kts | 293° |
| 2026-05-04 07:24 | 26.10577 | 91.58541 | 175 ft | 12 kts | 292° |
| 2026-05-04 07:25 | 26.10555 | 91.58479 | 174 ft | 12 kts | 205° |
| 2026-05-04 07:26 | 26.09620 | 91.57994 | 172 ft | 14 kts | 213° |
| 2026-05-04 07:27 | 26.09542 | 91.57957 | 169 ft | 8 kts | 201° |
| 2026-05-04 07:27 | 26.09499 | 91.57987 | 168 ft | 4 kts | 78° |
| 2026-05-04 07:27 | 26.09528 | 91.58004 | 169 ft | 5 kts | 22° |
| 2026-05-04 07:27 | 26.09662 | 91.58065 | 173 ft | 56 kts | 22° |
| 2026-05-04 07:28 | 26.10273 | 91.58347 | 170 ft | 130 kts | 22° |
| 2026-05-04 07:28 | 26.11241 | 91.58806 | 476 ft | 156 kts | 21° |
| 2026-05-04 07:28 | 26.12219 | 91.59279 | 1260 ft | 153 kts | 24° |
| 2026-05-04 07:28 | 26.13214 | 91.59722 | 1918 ft | 156 kts | 23° |
| 2026-05-04 07:29 | 26.14303 | 91.60177 | 2374 ft | 177 kts | 22° |
| 2026-05-04 07:29 | 26.15561 | 91.60606 | 2764 ft | 204 kts | 9° |
| 2026-05-04 07:29 | 26.17071 | 91.60367 | 3152 ft | 237 kts | 339° |
| 2026-05-04 07:29 | 26.18456 | 91.59223 | 3713 ft | 263 kts | 311° |
| 2026-05-04 07:30 | 26.19300 | 91.57365 | 4465 ft | 276 kts | 285° |
| 2026-05-04 07:30 | 26.19617 | 91.55238 | 5462 ft | 280 kts | 274° |
| 2026-05-04 07:30 | 26.19725 | 91.53063 | 6515 ft | 282 kts | 271° |
| 2026-05-04 07:30 | 26.19791 | 91.50868 | 7505 ft | 285 kts | 271° |
| 2026-05-04 07:31 | 26.19882 | 91.48648 | 8491 ft | 288 kts | 272° |
| 2026-05-04 07:31 | 26.20016 | 91.46411 | 9452 ft | 292 kts | 274° |
| 2026-05-04 07:33 | 26.21714 | 91.28329 | 14358 ft | 356 kts | 276° |
| 2026-05-04 07:33 | 26.21977 | 91.25615 | 15115 ft | 358 kts | 276° |
| 2026-05-04 07:33 | 26.22243 | 91.22848 | 15879 ft | 360 kts | 275° |
| 2026-05-04 07:33 | 26.22508 | 91.20074 | 16625 ft | 362 kts | 275° |
| 2026-05-04 07:34 | 26.22776 | 91.17279 | 17381 ft | 364 kts | 275° |
| 2026-05-04 07:34 | 26.23044 | 91.14459 | 18126 ft | 367 kts | 275° |
| 2026-05-04 07:34 | 26.23313 | 91.11632 | 18754 ft | 369 kts | 275° |
| 2026-05-04 07:34 | 26.23584 | 91.08773 | 19369 ft | 372 kts | 275° |
| 2026-05-04 07:35 | 26.23859 | 91.05889 | 19979 ft | 376 kts | 275° |
| 2026-05-04 07:35 | 26.24136 | 91.02987 | 20593 ft | 379 kts | 275° |
| 2026-05-04 07:35 | 26.24416 | 91.00049 | 21189 ft | 382 kts | 275° |
| 2026-05-04 07:35 | 26.24696 | 90.97095 | 21776 ft | 385 kts | 274° |
| 2026-05-04 07:36 | 26.24978 | 90.94110 | 22349 ft | 388 kts | 274° |
| 2026-05-04 07:36 | 26.25261 | 90.91108 | 22906 ft | 392 kts | 274° |
| 2026-05-04 07:38 | 26.27270 | 90.69583 | 23902 ft | 403 kts | 275° |
| 2026-05-04 07:38 | 26.27855 | 90.66525 | 23903 ft | 406 kts | 285° |
| 2026-05-04 07:38 | 26.28967 | 90.63578 | 23904 ft | 410 kts | 295° |
| 2026-05-04 07:38 | 26.30348 | 90.60845 | 23907 ft | 410 kts | 296° |
| 2026-05-04 07:39 | 26.31751 | 90.58075 | 23909 ft | 410 kts | 296° |
| 2026-05-04 07:39 | 26.33151 | 90.55302 | 23907 ft | 410 kts | 296° |
| 2026-05-04 07:39 | 26.34545 | 90.52533 | 23909 ft | 410 kts | 296° |
| 2026-05-04 07:39 | 26.35940 | 90.49756 | 23911 ft | 410 kts | 296° |
| 2026-05-04 07:40 | 26.37331 | 90.46985 | 23825 ft | 407 kts | 296° |
| 2026-05-04 07:40 | 26.38712 | 90.44240 | 23297 ft | 404 kts | 296° |
| 2026-05-04 07:40 | 26.40080 | 90.41518 | 22708 ft | 401 kts | 296° |
| 2026-05-04 07:40 | 26.41436 | 90.38812 | 22165 ft | 398 kts | 296° |
| 2026-05-04 07:41 | 26.42786 | 90.36118 | 21628 ft | 395 kts | 296° |
| 2026-05-04 07:41 | 26.44124 | 90.33455 | 21149 ft | 392 kts | 296° |
| 2026-05-04 07:41 | 26.45451 | 90.30810 | 20693 ft | 389 kts | 296° |
| 2026-05-04 07:41 | 26.46765 | 90.28183 | 20255 ft | 386 kts | 296° |
| 2026-05-04 07:42 | 26.48070 | 90.25571 | 19832 ft | 383 kts | 296° |
| 2026-05-04 07:42 | 26.49365 | 90.22978 | 19405 ft | 381 kts | 297° |
| 2026-05-04 07:42 | 26.50653 | 90.20398 | 18977 ft | 378 kts | 297° |
| 2026-05-04 07:42 | 26.51928 | 90.17843 | 18557 ft | 376 kts | 297° |
| 2026-05-04 07:43 | 26.53195 | 90.15304 | 18134 ft | 373 kts | 297° |
| 2026-05-04 07:43 | 26.54457 | 90.12783 | 17637 ft | 371 kts | 297° |
| 2026-05-04 07:43 | 26.55711 | 90.10272 | 17138 ft | 369 kts | 297° |
| 2026-05-04 07:43 | 26.56940 | 90.07810 | 16648 ft | 367 kts | 297° |
| 2026-05-04 07:44 | 26.58183 | 90.05324 | 16188 ft | 365 kts | 297° |
| 2026-05-04 07:44 | 26.59400 | 90.02889 | 16058 ft | 353 kts | 297° |
| 2026-05-04 07:44 | 26.60579 | 90.00525 | 15944 ft | 342 kts | 297° |
| 2026-05-04 07:44 | 26.61716 | 89.98242 | 15826 ft | 332 kts | 297° |
| 2026-05-04 07:45 | 26.62821 | 89.96017 | 15705 ft | 323 kts | 297° |
| 2026-05-04 07:45 | 26.63899 | 89.93845 | 15588 ft | 315 kts | 297° |
| 2026-05-04 07:45 | 26.64946 | 89.91735 | 15472 ft | 307 kts | 297° |
| 2026-05-04 07:45 | 26.65971 | 89.89671 | 15358 ft | 300 kts | 297° |
| 2026-05-04 07:46 | 26.66971 | 89.87660 | 15242 ft | 293 kts | 297° |
| 2026-05-04 07:46 | 26.67950 | 89.85688 | 15121 ft | 287 kts | 297° |
| 2026-05-04 07:46 | 26.68908 | 89.83753 | 15009 ft | 281 kts | 297° |
| 2026-05-04 07:46 | 26.69843 | 89.81859 | 14890 ft | 275 kts | 297° |
| 2026-05-04 07:47 | 26.70758 | 89.80003 | 14780 ft | 270 kts | 298° |
| 2026-05-04 07:47 | 26.71653 | 89.78189 | 14668 ft | 265 kts | 298° |
| 2026-05-04 07:47 | 26.72543 | 89.76393 | 14547 ft | 260 kts | 298° |
| 2026-05-04 07:49 | 26.81977 | 89.68428 | 13616 ft | 231 kts | 325° |
| 2026-05-04 07:49 | 26.83322 | 89.67444 | 13456 ft | 231 kts | 325° |
| 2026-05-04 07:49 | 26.84670 | 89.66458 | 13328 ft | 231 kts | 325° |
| 2026-05-04 07:50 | 26.86017 | 89.65471 | 13204 ft | 231 kts | 325° |
| 2026-05-04 07:50 | 26.87362 | 89.64487 | 13082 ft | 232 kts | 325° |
| 2026-05-04 07:50 | 26.88713 | 89.63499 | 12962 ft | 231 kts | 326° |
| 2026-05-04 07:50 | 26.90057 | 89.62515 | 12839 ft | 231 kts | 326° |
| 2026-05-04 07:51 | 26.91387 | 89.61540 | 12720 ft | 231 kts | 325° |
| 2026-05-04 07:51 | 26.92732 | 89.60552 | 12586 ft | 231 kts | 326° |
| 2026-05-04 07:51 | 26.94077 | 89.59565 | 12470 ft | 231 kts | 326° |
| 2026-05-04 07:51 | 26.95424 | 89.58576 | 12354 ft | 231 kts | 326° |
| 2026-05-04 07:52 | 26.96765 | 89.57592 | 12232 ft | 231 kts | 326° |
| 2026-05-04 07:52 | 26.98105 | 89.56608 | 12113 ft | 231 kts | 326° |
| 2026-05-04 07:52 | 26.99448 | 89.55619 | 11987 ft | 231 kts | 326° |
| 2026-05-04 07:52 | 27.00792 | 89.54632 | 11874 ft | 230 kts | 326° |
| 2026-05-04 07:53 | 27.02135 | 89.53645 | 11756 ft | 231 kts | 326° |
| 2026-05-04 07:54 | 27.12174 | 89.51254 | 11249 ft | 182 kts | 357° |
| 2026-05-04 07:55 | 27.13421 | 89.51202 | 11202 ft | 177 kts | 357° |
| 2026-05-04 07:55 | 27.14636 | 89.51150 | 11153 ft | 174 kts | 357° |
| 2026-05-04 07:55 | 27.15828 | 89.51100 | 11117 ft | 174 kts | 357° |
| 2026-05-04 07:55 | 27.17037 | 89.51181 | 11086 ft | 174 kts | 7° |
| 2026-05-04 07:56 | 27.18235 | 89.51396 | 11036 ft | 174 kts | 9° |
| 2026-05-04 07:56 | 27.19425 | 89.51635 | 10981 ft | 174 kts | 10° |
| 2026-05-04 07:56 | 27.20618 | 89.51889 | 10896 ft | 174 kts | 10° |
| 2026-05-04 07:56 | 27.21806 | 89.52153 | 10831 ft | 175 kts | 11° |
| 2026-05-04 07:57 | 27.22999 | 89.52428 | 10725 ft | 175 kts | 12° |
| 2026-05-04 07:57 | 27.24186 | 89.52712 | 10596 ft | 171 kts | 12° |
| 2026-05-04 07:57 | 27.25319 | 89.52995 | 10534 ft | 165 kts | 13° |
| 2026-05-04 07:57 | 27.26435 | 89.53284 | 10361 ft | 163 kts | 13° |
| 2026-05-04 07:58 | 27.27541 | 89.53557 | 10184 ft | 162 kts | 12° |
| 2026-05-04 07:58 | 27.28660 | 89.53711 | 10004 ft | 162 kts | 1° |
| 2026-05-04 07:58 | 27.29788 | 89.53612 | 9821 ft | 163 kts | 351° |
| 2026-05-04 07:58 | 27.30862 | 89.53223 | 9596 ft | 163 kts | 332° |
| 2026-05-04 07:59 | 27.31822 | 89.52534 | 9490 ft | 164 kts | 321° |
| 2026-05-04 07:59 | 27.32507 | 89.51580 | 9234 ft | 158 kts | 289° |
| 2026-05-04 07:59 | 27.32733 | 89.50384 | 9014 ft | 154 kts | 276° |
| 2026-05-04 07:59 | 27.32936 | 89.49210 | 8825 ft | 156 kts | 287° |
| 2026-05-04 08:00 | 27.33473 | 89.48156 | 8661 ft | 157 kts | 310° |
| 2026-05-04 08:00 | 27.34352 | 89.47426 | 8527 ft | 160 kts | 335° |
| 2026-05-04 08:00 | 27.35381 | 89.46978 | 8277 ft | 158 kts | 338° |
| 2026-05-04 08:02 | 27.40847 | 89.42137 | 7362 ft | 57 kts | 330° |
| 2026-05-04 08:02 | 27.40987 | 89.42049 | 7367 ft | 15 kts | 331° |
| 2026-05-04 08:02 | 27.41055 | 89.42007 | 7368 ft | 11 kts | 330° |
| 2026-05-04 08:03 | 27.41120 | 89.41962 | 7370 ft | 11 kts | 324° |
| 2026-05-04 08:03 | 27.41179 | 89.41910 | 7371 ft | 10 kts | 323° |
| 2026-05-04 08:03 | 27.41188 | 89.41920 | 7373 ft | 5 kts | 140° |
| 2026-05-04 08:03 | 27.41136 | 89.41955 | 7370 ft | 11 kts | 150° |
| 2026-05-04 08:04 | 27.41015 | 89.42032 | 7367 ft | 19 kts | 151° |
| 2026-05-04 08:04 | 27.40931 | 89.42085 | 7365 ft | 23 kts | 150° |
| 2026-05-04 08:04 | 27.40778 | 89.42182 | 7361 ft | 22 kts | 150° |
| 2026-05-04 08:04 | 27.40694 | 89.42214 | 7358 ft | 11 kts | 212° |
| 2026-05-04 08:05 | 27.40661 | 89.42167 | 7357 ft | 7 kts | 218° |
| 2026-05-04 08:05 | 27.40619 | 89.42162 | 7355 ft | 5 kts | 217° |
| 2026-05-04 08:05 | 27.40605 | 89.42136 | 7355 ft | 3 kts | 239° |
| 2026-05-04 08:05 | 27.40598 | 89.42122 | 7356 ft | 0 kts | 240° |